sensor_id;sensor_type;location;lat;lon;timestamp;P1;durP1;ratioP1;P2;durP2;ratioP2
8665;SDS011;4370;48.916;8.380;2022-12-07T00:01:08;10.60;;;7.73;;
8665;SDS011;4370;48.916;8.380;2022-12-07T00:03:39;10.83;;;7.53;;
8665;SDS011;4370;48.916;8.380;2022-12-07T00:06:06;9.73;;;7.70;;
8665;SDS011;4370;48.916;8.380;2022-12-07T00:08:33;10.17;;;7.53;;
8665;SDS011;4370;48.916;8.380;2022-12-07T00:11:03;9.63;;;7.33;;
8665;SDS011;4370;48.916;8.380;2022-12-07T00:13:34;10.63;;;7.40;;
8665;SDS011;4370;48.916;8.380;2022-12-07T00:16:01;10.40;;;7.20;;
8665;SDS011;4370;48.916;8.380;2022-12-07T00:18:27;8.83;;;6.97;;
8665;SDS011;4370;48.916;8.380;2022-12-07T00:20:53;9.70;;;7.00;;
8665;SDS011;4370;48.916;8.380;2022-12-07T00:23:19;10.10;;;7.40;;
8665;SDS011;4370;48.916;8.380;2022-12-07T00:25:44;9.67;;;7.63;;
8665;SDS011;4370;48.916;8.380;2022-12-07T00:28:10;9.47;;;6.70;;
8665;SDS011;4370;48.916;8.380;2022-12-07T00:30:36;11.50;;;7.43;;
8665;SDS011;4370;48.916;8.380;2022-12-07T00:33:02;11.80;;;8.10;;
8665;SDS011;4370;48.916;8.380;2022-12-07T00:35:28;9.70;;;6.87;;
8665;SDS011;4370;48.916;8.380;2022-12-07T00:37:54;13.53;;;8.90;;
8665;SDS011;4370;48.916;8.380;2022-12-07T00:40:20;12.60;;;8.57;;
8665;SDS011;4370;48.916;8.380;2022-12-07T00:42:45;14.70;;;9.60;;
8665;SDS011;4370;48.916;8.380;2022-12-07T00:45:11;19.30;;;9.83;;
8665;SDS011;4370;48.916;8.380;2022-12-07T00:47:37;16.17;;;10.90;;
8665;SDS011;4370;48.916;8.380;2022-12-07T00:50:03;12.67;;;9.37;;
8665;SDS011;4370;48.916;8.380;2022-12-07T00:52:29;12.27;;;8.73;;
8665;SDS011;4370;48.916;8.380;2022-12-07T00:54:55;14.70;;;10.23;;
8665;SDS011;4370;48.916;8.380;2022-12-07T00:57:21;11.90;;;9.00;;
8665;SDS011;4370;48.916;8.380;2022-12-07T00:59:47;14.17;;;9.77;;
8665;SDS011;4370;48.916;8.380;2022-12-07T01:02:13;13.07;;;9.53;;
8665;SDS011;4370;48.916;8.380;2022-12-07T01:04:38;11.07;;;8.60;;
8665;SDS011;4370;48.916;8.380;2022-12-07T01:07:04;13.17;;;9.47;;
8665;SDS011;4370;48.916;8.380;2022-12-07T01:09:30;14.63;;;9.87;;
8665;SDS011;4370;48.916;8.380;2022-12-07T01:11:56;12.97;;;9.40;;
8665;SDS011;4370;48.916;8.380;2022-12-07T01:14:22;13.33;;;8.87;;
8665;SDS011;4370;48.916;8.380;2022-12-07T01:16:48;12.87;;;8.27;;
8665;SDS011;4370;48.916;8.380;2022-12-07T01:19:14;12.83;;;8.87;;
8665;SDS011;4370;48.916;8.380;2022-12-07T01:21:40;13.93;;;9.63;;
8665;SDS011;4370;48.916;8.380;2022-12-07T01:24:07;12.80;;;8.40;;
8665;SDS011;4370;48.916;8.380;2022-12-07T01:26:35;12.13;;;8.30;;
8665;SDS011;4370;48.916;8.380;2022-12-07T01:29:01;12.30;;;8.30;;
8665;SDS011;4370;48.916;8.380;2022-12-07T01:31:27;11.83;;;8.30;;
8665;SDS011;4370;48.916;8.380;2022-12-07T01:33:55;10.70;;;7.80;;
8665;SDS011;4370;48.916;8.380;2022-12-07T01:36:24;12.03;;;8.40;;
8665;SDS011;4370;48.916;8.380;2022-12-07T01:38:53;11.37;;;8.07;;
8665;SDS011;4370;48.916;8.380;2022-12-07T01:41:21;11.77;;;8.47;;
8665;SDS011;4370;48.916;8.380;2022-12-07T01:46:38;11.83;;;8.27;;
8665;SDS011;4370;48.916;8.380;2022-12-07T01:49:05;12.23;;;8.67;;
8665;SDS011;4370;48.916;8.380;2022-12-07T01:51:33;11.03;;;7.77;;
8665;SDS011;4370;48.916;8.380;2022-12-07T01:53:59;9.90;;;7.73;;
8665;SDS011;4370;48.916;8.380;2022-12-07T01:56:26;11.03;;;8.17;;
8665;SDS011;4370;48.916;8.380;2022-12-07T01:58:55;10.57;;;7.53;;
8665;SDS011;4370;48.916;8.380;2022-12-07T02:01:22;11.03;;;7.63;;
8665;SDS011;4370;48.916;8.380;2022-12-07T02:03:48;11.37;;;8.53;;
8665;SDS011;4370;48.916;8.380;2022-12-07T02:06:16;13.07;;;9.33;;
8665;SDS011;4370;48.916;8.380;2022-12-07T02:08:45;13.67;;;9.67;;
8665;SDS011;4370;48.916;8.380;2022-12-07T02:11:12;10.00;;;7.67;;
8665;SDS011;4370;48.916;8.380;2022-12-07T02:13:38;9.60;;;7.23;;
8665;SDS011;4370;48.916;8.380;2022-12-07T02:21:51;9.90;;;6.90;;
8665;SDS011;4370;48.916;8.380;2022-12-07T02:27:51;9.97;;;7.00;;
8665;SDS011;4370;48.916;8.380;2022-12-07T02:30:15;10.23;;;7.60;;
8665;SDS011;4370;48.916;8.380;2022-12-07T02:33:00;13.00;;;8.63;;
8665;SDS011;4370;48.916;8.380;2022-12-07T02:40:36;12.47;;;8.43;;
8665;SDS011;4370;48.916;8.380;2022-12-07T02:45:39;13.53;;;10.40;;
8665;SDS011;4370;48.916;8.380;2022-12-07T02:48:06;19.43;;;12.77;;
8665;SDS011;4370;48.916;8.380;2022-12-07T02:50:34;17.30;;;12.43;;
8665;SDS011;4370;48.916;8.380;2022-12-07T02:53:00;17.23;;;12.23;;
8665;SDS011;4370;48.916;8.380;2022-12-07T02:55:29;18.00;;;12.57;;
8665;SDS011;4370;48.916;8.380;2022-12-07T02:58:03;20.30;;;12.93;;
8665;SDS011;4370;48.916;8.380;2022-12-07T03:00:31;19.30;;;13.00;;
8665;SDS011;4370;48.916;8.380;2022-12-07T03:03:09;18.17;;;11.93;;
8665;SDS011;4370;48.916;8.380;2022-12-07T03:05:42;17.30;;;12.37;;
8665;SDS011;4370;48.916;8.380;2022-12-07T03:11:06;15.87;;;11.13;;
8665;SDS011;4370;48.916;8.380;2022-12-07T03:13:42;15.17;;;10.33;;
8665;SDS011;4370;48.916;8.380;2022-12-07T03:18:59;14.43;;;10.60;;
8665;SDS011;4370;48.916;8.380;2022-12-07T03:21:37;13.47;;;9.73;;
8665;SDS011;4370;48.916;8.380;2022-12-07T03:24:12;13.97;;;9.60;;
8665;SDS011;4370;48.916;8.380;2022-12-07T03:26:46;13.77;;;10.27;;
8665;SDS011;4370;48.916;8.380;2022-12-07T03:29:34;12.63;;;9.67;;
8665;SDS011;4370;48.916;8.380;2022-12-07T03:32:08;15.17;;;9.67;;
8665;SDS011;4370;48.916;8.380;2022-12-07T03:34:41;13.53;;;9.77;;
8665;SDS011;4370;48.916;8.380;2022-12-07T03:40:08;13.80;;;10.23;;
8665;SDS011;4370;48.916;8.380;2022-12-07T03:42:35;15.60;;;9.77;;
8665;SDS011;4370;48.916;8.380;2022-12-07T03:45:04;13.43;;;9.37;;
8665;SDS011;4370;48.916;8.380;2022-12-07T03:47:32;14.40;;;10.07;;
8665;SDS011;4370;48.916;8.380;2022-12-07T03:50:13;15.23;;;9.97;;
8665;SDS011;4370;48.916;8.380;2022-12-07T03:52:53;14.23;;;9.63;;
8665;SDS011;4370;48.916;8.380;2022-12-07T03:55:25;13.43;;;9.37;;
8665;SDS011;4370;48.916;8.380;2022-12-07T03:57:55;13.77;;;9.57;;
8665;SDS011;4370;48.916;8.380;2022-12-07T04:00:25;12.73;;;9.03;;
8665;SDS011;4370;48.916;8.380;2022-12-07T04:02:51;14.57;;;9.53;;
8665;SDS011;4370;48.916;8.380;2022-12-07T04:05:17;14.07;;;9.97;;
8665;SDS011;4370;48.916;8.380;2022-12-07T04:07:43;13.83;;;9.43;;
8665;SDS011;4370;48.916;8.380;2022-12-07T04:10:10;10.93;;;8.20;;
8665;SDS011;4370;48.916;8.380;2022-12-07T04:12:36;12.53;;;8.87;;
8665;SDS011;4370;48.916;8.380;2022-12-07T04:15:02;13.93;;;8.93;;
8665;SDS011;4370;48.916;8.380;2022-12-07T04:17:28;12.90;;;8.87;;
8665;SDS011;4370;48.916;8.380;2022-12-07T04:19:55;14.90;;;9.20;;
8665;SDS011;4370;48.916;8.380;2022-12-07T04:22:20;13.87;;;8.93;;
8665;SDS011;4370;48.916;8.380;2022-12-07T04:24:46;13.17;;;8.33;;
8665;SDS011;4370;48.916;8.380;2022-12-07T04:27:12;14.07;;;9.37;;
8665;SDS011;4370;48.916;8.380;2022-12-07T04:29:38;14.37;;;9.13;;
8665;SDS011;4370;48.916;8.380;2022-12-07T04:32:04;16.30;;;9.73;;
8665;SDS011;4370;48.916;8.380;2022-12-07T04:34:30;13.17;;;9.50;;
8665;SDS011;4370;48.916;8.380;2022-12-07T04:36:56;13.33;;;9.27;;
8665;SDS011;4370;48.916;8.380;2022-12-07T04:41:48;13.50;;;9.17;;
8665;SDS011;4370;48.916;8.380;2022-12-07T04:44:15;15.93;;;10.17;;
8665;SDS011;4370;48.916;8.380;2022-12-07T04:46:41;14.77;;;10.23;;
8665;SDS011;4370;48.916;8.380;2022-12-07T04:49:07;15.50;;;10.60;;
8665;SDS011;4370;48.916;8.380;2022-12-07T04:51:33;13.00;;;9.57;;
8665;SDS011;4370;48.916;8.380;2022-12-07T04:53:59;14.97;;;9.77;;
8665;SDS011;4370;48.916;8.380;2022-12-07T04:56:25;14.23;;;9.50;;
8665;SDS011;4370;48.916;8.380;2022-12-07T04:58:51;14.97;;;10.03;;
8665;SDS011;4370;48.916;8.380;2022-12-07T05:01:18;13.77;;;9.07;;
8665;SDS011;4370;48.916;8.380;2022-12-07T05:03:44;18.17;;;10.90;;
8665;SDS011;4370;48.916;8.380;2022-12-07T05:06:11;15.70;;;11.07;;
8665;SDS011;4370;48.916;8.380;2022-12-07T05:08:37;17.53;;;10.07;;
8665;SDS011;4370;48.916;8.380;2022-12-07T05:11:03;17.00;;;9.70;;
8665;SDS011;4370;48.916;8.380;2022-12-07T05:13:30;14.03;;;10.10;;
8665;SDS011;4370;48.916;8.380;2022-12-07T05:15:56;15.63;;;10.50;;
8665;SDS011;4370;48.916;8.380;2022-12-07T05:18:23;16.50;;;10.40;;
8665;SDS011;4370;48.916;8.380;2022-12-07T05:20:49;13.87;;;9.97;;
8665;SDS011;4370;48.916;8.380;2022-12-07T05:23:16;14.70;;;9.77;;
8665;SDS011;4370;48.916;8.380;2022-12-07T05:25:42;16.97;;;11.07;;
8665;SDS011;4370;48.916;8.380;2022-12-07T05:28:08;13.33;;;9.57;;
8665;SDS011;4370;48.916;8.380;2022-12-07T05:30:34;15.80;;;10.13;;
8665;SDS011;4370;48.916;8.380;2022-12-07T05:33:00;14.47;;;9.93;;
8665;SDS011;4370;48.916;8.380;2022-12-07T05:35:26;14.17;;;9.67;;
8665;SDS011;4370;48.916;8.380;2022-12-07T05:37:51;13.03;;;9.07;;
8665;SDS011;4370;48.916;8.380;2022-12-07T05:40:17;14.43;;;9.67;;
8665;SDS011;4370;48.916;8.380;2022-12-07T05:42:44;11.37;;;8.13;;
8665;SDS011;4370;48.916;8.380;2022-12-07T05:45:10;13.63;;;8.60;;
8665;SDS011;4370;48.916;8.380;2022-12-07T05:47:37;11.97;;;8.30;;
8665;SDS011;4370;48.916;8.380;2022-12-07T05:50:03;14.67;;;9.00;;
8665;SDS011;4370;48.916;8.380;2022-12-07T05:52:29;12.87;;;8.17;;
8665;SDS011;4370;48.916;8.380;2022-12-07T05:54:55;11.57;;;8.20;;
8665;SDS011;4370;48.916;8.380;2022-12-07T05:57:21;12.87;;;8.33;;
8665;SDS011;4370;48.916;8.380;2022-12-07T05:59:47;10.90;;;8.27;;
8665;SDS011;4370;48.916;8.380;2022-12-07T06:02:14;12.63;;;8.53;;
8665;SDS011;4370;48.916;8.380;2022-12-07T06:04:41;17.27;;;10.93;;
8665;SDS011;4370;48.916;8.380;2022-12-07T06:07:08;14.67;;;10.03;;
8665;SDS011;4370;48.916;8.380;2022-12-07T06:09:35;16.52;;;12.07;;
8665;SDS011;4370;48.916;8.380;2022-12-07T06:12:01;16.37;;;10.40;;
8665;SDS011;4370;48.916;8.380;2022-12-07T06:14:46;14.43;;;9.90;;
8665;SDS011;4370;48.916;8.380;2022-12-07T06:17:13;14.77;;;10.17;;
8665;SDS011;4370;48.916;8.380;2022-12-07T06:19:39;14.63;;;10.30;;
8665;SDS011;4370;48.916;8.380;2022-12-07T06:22:05;17.47;;;10.57;;
8665;SDS011;4370;48.916;8.380;2022-12-07T06:24:31;15.10;;;9.63;;
8665;SDS011;4370;48.916;8.380;2022-12-07T06:26:57;13.80;;;9.70;;
8665;SDS011;4370;48.916;8.380;2022-12-07T06:29:23;14.30;;;10.73;;
8665;SDS011;4370;48.916;8.380;2022-12-07T06:31:49;14.77;;;9.57;;
8665;SDS011;4370;48.916;8.380;2022-12-07T06:34:17;14.77;;;9.90;;
8665;SDS011;4370;48.916;8.380;2022-12-07T06:36:44;14.50;;;9.40;;
8665;SDS011;4370;48.916;8.380;2022-12-07T06:39:12;15.37;;;9.50;;
8665;SDS011;4370;48.916;8.380;2022-12-07T06:41:38;17.07;;;10.97;;
8665;SDS011;4370;48.916;8.380;2022-12-07T06:44:05;13.93;;;9.70;;
8665;SDS011;4370;48.916;8.380;2022-12-07T06:46:31;16.13;;;9.93;;
8665;SDS011;4370;48.916;8.380;2022-12-07T06:48:57;15.07;;;10.63;;
8665;SDS011;4370;48.916;8.380;2022-12-07T06:51:23;14.80;;;9.90;;
8665;SDS011;4370;48.916;8.380;2022-12-07T06:53:49;14.80;;;10.10;;
8665;SDS011;4370;48.916;8.380;2022-12-07T06:56:15;16.27;;;10.23;;
8665;SDS011;4370;48.916;8.380;2022-12-07T06:58:41;14.80;;;10.40;;
8665;SDS011;4370;48.916;8.380;2022-12-07T07:01:10;14.17;;;9.27;;
8665;SDS011;4370;48.916;8.380;2022-12-07T07:03:37;16.40;;;9.70;;
8665;SDS011;4370;48.916;8.380;2022-12-07T07:06:03;15.30;;;9.63;;
8665;SDS011;4370;48.916;8.380;2022-12-07T07:08:30;12.20;;;8.80;;
8665;SDS011;4370;48.916;8.380;2022-12-07T07:10:56;13.50;;;8.80;;
8665;SDS011;4370;48.916;8.380;2022-12-07T07:13:22;13.17;;;9.00;;
8665;SDS011;4370;48.916;8.380;2022-12-07T07:15:48;14.57;;;9.87;;
8665;SDS011;4370;48.916;8.380;2022-12-07T07:18:14;15.23;;;9.50;;
8665;SDS011;4370;48.916;8.380;2022-12-07T07:20:40;14.43;;;9.47;;
8665;SDS011;4370;48.916;8.380;2022-12-07T07:23:06;12.97;;;8.70;;
8665;SDS011;4370;48.916;8.380;2022-12-07T07:25:32;13.67;;;8.77;;
8665;SDS011;4370;48.916;8.380;2022-12-07T07:27:58;12.87;;;8.87;;
8665;SDS011;4370;48.916;8.380;2022-12-07T07:30:24;14.13;;;8.73;;
8665;SDS011;4370;48.916;8.380;2022-12-07T07:32:50;11.90;;;8.27;;
8665;SDS011;4370;48.916;8.380;2022-12-07T07:35:16;12.37;;;8.40;;
8665;SDS011;4370;48.916;8.380;2022-12-07T07:37:42;12.50;;;7.83;;
8665;SDS011;4370;48.916;8.380;2022-12-07T07:40:09;9.70;;;7.10;;
8665;SDS011;4370;48.916;8.380;2022-12-07T07:42:35;11.93;;;7.77;;
8665;SDS011;4370;48.916;8.380;2022-12-07T07:45:01;10.53;;;7.07;;
8665;SDS011;4370;48.916;8.380;2022-12-07T07:47:27;11.17;;;7.27;;
8665;SDS011;4370;48.916;8.380;2022-12-07T07:49:54;10.13;;;6.60;;
8665;SDS011;4370;48.916;8.380;2022-12-07T07:52:19;10.37;;;6.77;;
8665;SDS011;4370;48.916;8.380;2022-12-07T07:54:45;13.27;;;7.57;;
8665;SDS011;4370;48.916;8.380;2022-12-07T07:57:11;10.70;;;7.30;;
8665;SDS011;4370;48.916;8.380;2022-12-07T07:59:37;11.93;;;7.43;;
8665;SDS011;4370;48.916;8.380;2022-12-07T08:02:03;10.13;;;7.13;;
8665;SDS011;4370;48.916;8.380;2022-12-07T08:04:29;11.47;;;7.33;;
8665;SDS011;4370;48.916;8.380;2022-12-07T08:06:55;10.53;;;7.40;;
8665;SDS011;4370;48.916;8.380;2022-12-07T08:09:21;9.63;;;6.80;;
8665;SDS011;4370;48.916;8.380;2022-12-07T08:11:47;11.27;;;8.30;;
8665;SDS011;4370;48.916;8.380;2022-12-07T08:14:13;10.13;;;7.50;;
8665;SDS011;4370;48.916;8.380;2022-12-07T08:16:43;11.93;;;8.43;;
8665;SDS011;4370;48.916;8.380;2022-12-07T08:19:08;9.13;;;7.30;;
8665;SDS011;4370;48.916;8.380;2022-12-07T08:21:34;12.97;;;7.57;;
8665;SDS011;4370;48.916;8.380;2022-12-07T08:37:28;11.07;;;7.93;;
8665;SDS011;4370;48.916;8.380;2022-12-07T08:54:17;8.87;;;6.10;;
8665;SDS011;4370;48.916;8.380;2022-12-07T09:17:44;9.93;;;6.77;;
8665;SDS011;4370;48.916;8.380;2022-12-07T09:41:04;8.80;;;6.47;;
8665;SDS011;4370;48.916;8.380;2022-12-07T12:35:41;13.73;;;8.33;;
8665;SDS011;4370;48.916;8.380;2022-12-07T12:45:33;12.17;;;8.37;;
8665;SDS011;4370;48.916;8.380;2022-12-07T12:48:40;13.70;;;8.17;;
8665;SDS011;4370;48.916;8.380;2022-12-07T12:54:33;11.43;;;7.73;;
8665;SDS011;4370;48.916;8.380;2022-12-07T13:37:33;19.57;;;11.73;;
8665;SDS011;4370;48.916;8.380;2022-12-07T13:50:30;27.90;;;15.80;;
8665;SDS011;4370;48.916;8.380;2022-12-07T15:47:43;16.37;;;9.53;;
8665;SDS011;4370;48.916;8.380;2022-12-07T16:37:59;20.27;;;10.40;;
8665;SDS011;4370;48.916;8.380;2022-12-07T16:48:18;19.07;;;11.50;;
8665;SDS011;4370;48.916;8.380;2022-12-07T16:54:30;15.40;;;10.33;;
8665;SDS011;4370;48.916;8.380;2022-12-07T17:13:50;17.60;;;10.53;;
8665;SDS011;4370;48.916;8.380;2022-12-07T17:20:25;14.50;;;10.10;;
8665;SDS011;4370;48.916;8.380;2022-12-07T18:07:11;24.17;;;13.50;;
8665;SDS011;4370;48.916;8.380;2022-12-07T18:10:19;23.70;;;13.37;;
8665;SDS011;4370;48.916;8.380;2022-12-07T18:27:35;27.97;;;16.57;;
8665;SDS011;4370;48.916;8.380;2022-12-07T19:00:20;22.17;;;13.00;;
8665;SDS011;4370;48.916;8.380;2022-12-07T19:23:11;9.47;;;7.20;;
8665;SDS011;4370;48.916;8.380;2022-12-07T19:42:32;8.83;;;6.30;;
8665;SDS011;4370;48.916;8.380;2022-12-07T19:59:22;12.50;;;7.97;;
8665;SDS011;4370;48.916;8.380;2022-12-07T20:43:07;19.43;;;11.37;;
8665;SDS011;4370;48.916;8.380;2022-12-07T20:51:54;21.40;;;12.60;;
8665;SDS011;4370;48.916;8.380;2022-12-07T21:55:32;24.13;;;12.07;;
8665;SDS011;4370;48.916;8.380;2022-12-07T22:04:53;25.00;;;13.33;;
8665;SDS011;4370;48.916;8.380;2022-12-07T22:14:49;32.03;;;17.87;;
